Weather at Wyndham Airport

Public forecast

Using degrees Celsius for public forecast. Weather courtesy of forecast.io.

Closest aviation weather report (METAR) to Wyndham Airport

Closest report is Kununurra Airport, 35.9 nm (66.4 km) ESE. Retrieved 2021/05/12 07:00 UTC (24 minutes ago):

YPKU 120700Z AUTO 16010KT 9999 // NCD 33/11 Q1010

Closest aviation forecast (TAF) to Wyndham Airport

Closest forecast is Kununurra Airport, 35.9 nm (66.4 km) ESE. Retrieved 2021/05/12 08:00 UTC (0 seconds ago):

TAF YPKU 120705Z 1208/1220 14010KT CAVOK FM120900 16004KT CAVOK